< < Back
Terminal Aerodrome Forecast


Current Version              Previous Versions:   1  2  3  4  5  6  7  8  9  

Terminal Aerodrome Forecast

903
FTUS42 KFFC 252329
TAFCSG
TAF
KCSG 252329Z 2600/2624 VRB03KT P6SM SCT100 BKN250
     FM261000 00000KT P6SM SCT012
     FM261400 10004KT P6SM SCT025
     FM261700 11007KT P6SM SCT045 PROB30 2619/2624 6SM -TSRA
      OVC035CB=



Latest METAR

615
SAUS70 KWBC 260300
MTRCSG
METAR KCSG 260251Z 00000KT 10SM CLR 25/20 A3004 RMK AO2 SLP165 T02500200
51009


USA.gov is the U.S. government's official web portal to all federal, state and local government web resources and services.